Time;durP1;ratioP1;P1;durP2;ratioP2;P2;SDS_P1;SDS_P2;PMS_P1;PMS_P2;Temp;Humidity;BMP_temperature;BMP_pressure;BME280_temperature;BME280_humidity;BME280_pressure;Samples;Min_cycle;Max_cycle;Signal;HPM_P1;HPM_P2
2023/11/13 00:01:40;;;;;;;8.47;4.57;;;;;;;;;;6208298;23;20210;-90
2023/11/13 00:04:45;;;;;;;7.23;4.03;;;;;;;;;;6208946;22;20166;-91
2023/11/13 00:07:50;;;;;;;4.77;3.57;;;;;;;;;;6209066;23;20190;-91
2023/11/13 00:10:56;;;;;;;6.10;3.80;;;;;;;;;;6210229;23;20238;-90
2023/11/13 00:14:03;;;;;;;6.00;3.83;;;;;;;;;;6209353;23;20167;-93
2023/11/13 00:17:09;;;;;;;7.20;4.00;;;;;;;;;;6208701;22;20150;-91
2023/11/13 00:20:14;;;;;;;6.07;4.00;;;;;;;;;;6210066;23;20171;-92
2023/11/13 00:23:19;;;;;;;6.33;3.70;;;;;;;;;;6210509;23;20170;-89
2023/11/13 00:26:25;;;;;;;7.87;3.63;;;;;;;;;;6209584;23;20167;-91
2023/11/13 00:29:35;;;;;;;6.43;3.70;;;;;;;;;;6210114;23;20234;-90
2023/11/13 00:32:40;;;;;;;6.57;4.00;;;;;;;;;;6209809;22;20147;-87
2023/11/13 00:35:45;;;;;;;7.37;4.50;;;;;;;;;;6210674;23;20175;-89
2023/11/13 00:38:50;;;;;;;6.50;4.33;;;;;;;;;;6206824;23;20277;-90
2023/11/13 00:41:55;;;;;;;6.77;4.10;;;;;;;;;;6207392;23;20246;-90
2023/11/13 00:45:02;;;;;;;5.37;3.90;;;;;;;;;;6209847;23;20233;-90
2023/11/13 00:48:08;;;;;;;5.67;4.00;;;;;;;;;;6209813;22;20207;-90
2023/11/13 00:51:13;;;;;;;6.30;4.03;;;;;;;;;;6210293;22;20155;-89
2023/11/13 00:54:18;;;;;;;7.60;4.30;;;;;;;;;;6210943;23;20171;-91
2023/11/13 00:57:23;;;;;;;7.50;3.97;;;;;;;;;;6211157;23;20167;-93
2023/11/13 01:00:31;;;;;;;7.73;4.03;;;;;;;;;;6210169;23;20622;-90
2023/11/13 01:03:38;;;;;;;6.43;4.60;;;;;;;;;;6210212;22;20168;-89
2023/11/13 01:06:44;;;;;;;5.33;4.17;;;;;;;;;;6210947;23;20179;-90
2023/11/13 01:09:49;;;;;;;7.87;4.03;;;;;;;;;;6210609;23;20175;-89
2023/11/13 01:12:54;;;;;;;5.40;4.07;;;;;;;;;;6210360;23;20218;-90
2023/11/13 01:16:01;;;;;;;7.13;4.60;;;;;;;;;;6209406;23;20210;-92
2023/11/13 01:19:06;;;;;;;6.33;4.43;;;;;;;;;;6209656;23;20194;-88
2023/11/13 01:22:11;;;;;;;6.07;4.23;;;;;;;;;;6207885;23;20310;-93
2023/11/13 01:25:17;;;;;;;6.30;4.30;;;;;;;;;;6208379;23;20163;-91
2023/11/13 01:28:23;;;;;;;10.03;4.37;;;;;;;;;;6206293;23;20167;-93
2023/11/13 01:31:29;;;;;;;7.80;4.40;;;;;;;;;;6208742;23;20155;-91
2023/11/13 01:34:34;;;;;;;6.63;4.40;;;;;;;;;;6209440;23;20171;-90
2023/11/13 01:37:39;;;;;;;7.00;4.27;;;;;;;;;;6208463;23;20175;-92
2023/11/13 01:40:44;;;;;;;6.40;4.00;;;;;;;;;;6209334;22;20171;-92
2023/11/13 01:43:49;;;;;;;6.20;4.10;;;;;;;;;;6207608;23;20162;-90
2023/11/13 01:46:56;;;;;;;8.17;4.47;;;;;;;;;;6208761;23;20174;-91
2023/11/13 01:50:02;;;;;;;7.97;4.60;;;;;;;;;;6208632;23;20174;-88
2023/11/13 01:53:09;;;;;;;7.30;4.50;;;;;;;;;;6208326;23;20171;-89
2023/11/13 01:56:14;;;;;;;6.90;4.30;;;;;;;;;;6209870;23;20171;-91
2023/11/13 01:59:20;;;;;;;5.60;3.90;;;;;;;;;;6208597;23;20198;-90
2023/11/13 02:02:27;;;;;;;7.50;3.80;;;;;;;;;;6210995;22;20203;-88
2023/11/13 02:05:33;;;;;;;5.00;3.33;;;;;;;;;;6211310;23;20162;-90
2023/11/13 02:08:38;;;;;;;6.17;4.03;;;;;;;;;;6210679;23;20190;-90
2023/11/13 02:11:44;;;;;;;10.00;3.90;;;;;;;;;;6211735;23;20175;-92
2023/11/13 02:14:49;;;;;;;7.67;4.80;;;;;;;;;;6212774;22;20191;-92
2023/11/13 02:18:03;;;;;;;6.10;4.47;;;;;;;;;;6211066;23;20224;-89
2023/11/13 02:21:08;;;;;;;8.97;4.37;;;;;;;;;;6211821;23;20239;-92
2023/11/13 02:24:19;;;;;;;6.33;4.47;;;;;;;;;;6209190;23;20617;-91
2023/11/13 02:27:25;;;;;;;6.43;4.27;;;;;;;;;;6209476;22;20147;-91
2023/11/13 02:30:30;;;;;;;7.27;4.40;;;;;;;;;;6209434;23;20172;-91
2023/11/13 02:33:37;;;;;;;6.07;4.37;;;;;;;;;;6210193;23;20167;-88
2023/11/13 02:36:42;;;;;;;5.90;4.10;;;;;;;;;;6209256;23;20167;-90
2023/11/13 02:39:49;;;;;;;7.40;4.47;;;;;;;;;;6207603;23;20195;-89
2023/11/13 02:42:54;;;;;;;7.70;4.50;;;;;;;;;;6208408;23;20163;-91
2023/11/13 02:45:59;;;;;;;7.90;4.40;;;;;;;;;;6209395;23;20293;-89
2023/11/13 02:49:05;;;;;;;6.63;4.40;;;;;;;;;;6209151;23;20150;-91
2023/11/13 02:52:10;;;;;;;7.40;4.43;;;;;;;;;;6209357;23;20171;-91
2023/11/13 02:55:17;;;;;;;7.57;4.57;;;;;;;;;;6208600;23;20167;-91
2023/11/13 02:58:22;;;;;;;7.60;4.87;;;;;;;;;;6209729;22;20227;-88
2023/11/13 03:01:28;;;;;;;6.30;4.23;;;;;;;;;;6209855;22;20295;-90
2023/11/13 03:04:33;;;;;;;9.73;5.30;;;;;;;;;;6209067;23;20191;-91
2023/11/13 03:07:38;;;;;;;8.77;4.83;;;;;;;;;;6211172;23;20233;-88
2023/11/13 03:10:46;;;;;;;7.73;4.67;;;;;;;;;;6209920;23;20175;-90
2023/11/13 03:13:51;;;;;;;7.67;4.80;;;;;;;;;;6210775;22;20191;-90
2023/11/13 03:16:57;;;;;;;6.80;4.23;;;;;;;;;;6212647;23;20168;-89
2023/11/13 03:20:04;;;;;;;8.67;4.93;;;;;;;;;;6211617;23;20194;-90
2023/11/13 03:23:09;;;;;;;9.13;5.27;;;;;;;;;;6212256;23;20191;-91
2023/11/13 03:26:18;;;;;;;9.87;5.10;;;;;;;;;;6211805;23;20199;-88
2023/11/13 03:29:25;;;;;;;9.00;5.20;;;;;;;;;;6209347;22;20779;-88
2023/11/13 03:32:30;;;;;;;8.77;5.10;;;;;;;;;;6210990;23;20171;-92
2023/11/13 03:35:36;;;;;;;10.67;5.60;;;;;;;;;;6210615;23;20175;-92
2023/11/13 03:38:41;;;;;;;9.03;4.93;;;;;;;;;;6211677;23;20186;-91
2023/11/13 03:41:47;;;;;;;8.20;5.20;;;;;;;;;;6213004;23;20170;-91
2023/11/13 03:44:53;;;;;;;10.73;5.10;;;;;;;;;;6213321;22;20606;-93
2023/11/13 03:47:58;;;;;;;8.80;5.17;;;;;;;;;;6212670;23;20211;-88
2023/11/13 03:51:03;;;;;;;7.20;4.90;;;;;;;;;;6212208;23;20175;-92
2023/11/13 03:54:09;;;;;;;8.47;4.93;;;;;;;;;;6212891;23;20168;-90
2023/11/13 03:57:16;;;;;;;9.87;5.83;;;;;;;;;;6231658;22;20506;-91
2023/11/13 04:00:22;;;;;;;9.90;5.43;;;;;;;;;;6213691;22;20183;-91
2023/11/13 04:03:28;;;;;;;9.90;5.87;;;;;;;;;;6212886;23;20183;-90
2023/11/13 04:06:33;;;;;;;10.80;5.77;;;;;;;;;;6212161;23;20183;-90
2023/11/13 04:09:38;;;;;;;10.33;6.23;;;;;;;;;;6211817;23;20236;-92
2023/11/13 04:12:45;;;;;;;10.10;6.20;;;;;;;;;;6213726;22;20250;-93
2023/11/13 04:15:51;;;;;;;9.37;5.87;;;;;;;;;;6212319;23;20171;-92
2023/11/13 04:18:57;;;;;;;9.00;5.47;;;;;;;;;;6211054;23;20235;-89
2023/11/13 04:22:02;;;;;;;11.00;5.00;;;;;;;;;;6211287;23;20163;-90
2023/11/13 04:25:08;;;;;;;9.37;5.47;;;;;;;;;;6211880;23;20257;-92
2023/11/13 04:28:15;;;;;;;13.40;5.77;;;;;;;;;;6212782;23;20619;-94
2023/11/13 04:31:20;;;;;;;8.17;5.53;;;;;;;;;;6212184;23;20175;-93
2023/11/13 04:34:25;;;;;;;8.63;5.37;;;;;;;;;;6211210;23;20182;-90
2023/11/13 04:37:31;;;;;;;10.37;5.77;;;;;;;;;;6211104;23;20166;-89
2023/11/13 04:40:36;;;;;;;9.67;5.70;;;;;;;;;;6212250;23;20260;-90
2023/11/13 04:43:42;;;;;;;9.80;6.17;;;;;;;;;;6213025;22;20545;-88
2023/11/13 04:46:47;;;;;;;11.10;6.23;;;;;;;;;;6212024;23;20231;-93
2023/11/13 04:49:53;;;;;;;10.47;6.03;;;;;;;;;;6211827;23;20226;-89
2023/11/13 04:52:59;;;;;;;11.47;6.57;;;;;;;;;;6211583;23;20163;-91
2023/11/13 04:56:03;;;;;;;10.33;6.37;;;;;;;;;;6212484;22;20179;-90
2023/11/13 04:59:11;;;;;;;12.00;6.37;;;;;;;;;;6212308;23;20186;-92
2023/11/13 05:02:16;;;;;;;10.47;6.23;;;;;;;;;;6212453;23;20179;-88
2023/11/13 05:05:25;;;;;;;9.00;5.50;;;;;;;;;;6211354;23;20175;-91
2023/11/13 05:08:30;;;;;;;9.97;5.90;;;;;;;;;;6211581;23;20183;-89
2023/11/13 05:11:36;;;;;;;10.47;5.77;;;;;;;;;;6211738;23;20163;-91
2023/11/13 05:14:43;;;;;;;12.07;6.00;;;;;;;;;;6211500;23;20250;-92
2023/11/13 05:17:48;;;;;;;11.80;6.20;;;;;;;;;;6210081;23;20741;-90
2023/11/13 05:20:54;;;;;;;13.33;6.53;;;;;;;;;;6210182;23;20263;-91
2023/11/13 05:23:59;;;;;;;12.10;6.30;;;;;;;;;;6210656;22;20147;-91
2023/11/13 05:27:05;;;;;;;12.77;6.37;;;;;;;;;;6210765;22;20171;-90
2023/11/13 05:30:13;;;;;;;11.53;6.87;;;;;;;;;;6211930;23;20158;-92
2023/11/13 05:33:20;;;;;;;13.50;6.67;;;;;;;;;;6212367;23;20179;-90
2023/11/13 05:36:25;;;;;;;11.63;6.07;;;;;;;;;;6211813;23;20282;-89
2023/11/13 05:39:31;;;;;;;13.07;6.53;;;;;;;;;;6212165;23;20181;-89
2023/11/13 05:42:39;;;;;;;11.57;6.43;;;;;;;;;;6212045;23;20175;-91
2023/11/13 05:45:46;;;;;;;12.97;6.90;;;;;;;;;;6213044;23;20171;-91
2023/11/13 05:48:51;;;;;;;15.07;7.53;;;;;;;;;;6214649;23;20171;-93
2023/11/13 05:51:56;;;;;;;13.83;7.37;;;;;;;;;;6214214;22;20171;-89
2023/11/13 05:55:02;;;;;;;14.20;7.03;;;;;;;;;;6210051;22;20166;-88
2023/11/13 05:58:07;;;;;;;18.33;9.50;;;;;;;;;;6212775;23;20338;-92
2023/11/13 06:01:18;;;;;;;16.37;7.13;;;;;;;;;;6215274;23;20234;-92
2023/11/13 06:04:27;;;;;;;13.57;6.47;;;;;;;;;;6212007;23;20615;-93
2023/11/13 06:07:36;;;;;;;12.40;6.70;;;;;;;;;;6214509;22;20178;-91
2023/11/13 06:10:42;;;;;;;13.97;6.93;;;;;;;;;;6214360;23;20163;-88
2023/11/13 06:13:48;;;;;;;14.30;7.17;;;;;;;;;;6212491;23;20643;-89
2023/11/13 06:16:57;;;;;;;17.23;8.13;;;;;;;;;;6214847;23;20209;-91
2023/11/13 06:20:03;;;;;;;13.70;7.00;;;;;;;;;;6215239;23;20689;-89
2023/11/13 06:23:08;;;;;;;15.30;8.17;;;;;;;;;;6215778;22;20250;-93
2023/11/13 06:26:14;;;;;;;13.70;7.03;;;;;;;;;;6216777;23;20167;-91
2023/11/13 06:29:25;;;;;;;15.00;7.67;;;;;;;;;;6214962;23;20167;-91
2023/11/13 06:32:32;;;;;;;19.17;7.33;;;;;;;;;;6215963;23;20174;-94
2023/11/13 06:39:07;;;;;;;14.73;7.33;;;;;;;;;;6220350;23;20186;-93
2023/11/13 06:42:13;;;;;;;15.10;7.03;;;;;;;;;;6239207;22;20277;-93
2023/11/13 06:48:39;;;;;;;14.07;5.87;;;;;;;;;;6203993;23;20159;-93
2023/11/13 06:51:45;;;;;;;12.30;6.50;;;;;;;;;;6203167;23;20172;-90
2023/11/13 06:54:50;;;;;;;12.87;6.87;;;;;;;;;;6204277;23;20176;-94
2023/11/13 07:01:14;;;;;;;16.27;8.23;;;;;;;;;;6185488;23;20204;-93
2023/11/13 07:07:57;;;;;;;12.63;6.33;;;;;;;;;;6184494;23;20200;-91
2023/11/13 07:11:04;;;;;;;8.27;4.87;;;;;;;;;;6203637;23;20192;-93
2023/11/13 07:14:10;;;;;;;12.90;5.93;;;;;;;;;;6205102;23;20164;-94
2023/11/13 07:17:16;;;;;;;11.77;5.73;;;;;;;;;;6187462;23;20172;-92
2023/11/13 07:20:22;;;;;;;11.10;5.00;;;;;;;;;;6201901;23;20235;-93
2023/11/13 07:23:31;;;;;;;9.23;4.60;;;;;;;;;;6202729;23;20160;-92
2023/11/13 07:26:45;;;;;;;11.83;5.47;;;;;;;;;;6203310;23;20163;-94
2023/11/13 07:29:53;;;;;;;9.60;4.87;;;;;;;;;;6204518;23;20195;-92
2023/11/13 07:32:58;;;;;;;9.27;4.90;;;;;;;;;;6205264;23;20171;-91
2023/11/13 07:36:05;;;;;;;8.97;4.93;;;;;;;;;;6206035;23;20242;-92
2023/11/13 07:39:27;;;;;;;9.63;4.97;;;;;;;;;;6204173;23;20168;-92
2023/11/13 07:42:34;;;;;;;10.37;4.40;;;;;;;;;;6202213;23;20247;-93
2023/11/13 07:45:42;;;;;;;11.40;4.80;;;;;;;;;;6202534;23;20168;-92
2023/11/13 07:48:53;;;;;;;10.10;4.70;;;;;;;;;;6184792;23;20196;-93
2023/11/13 07:51:59;;;;;;;11.00;4.93;;;;;;;;;;6184738;23;20164;-93
2023/11/13 07:55:12;;;;;;;8.53;4.90;;;;;;;;;;6188496;23;20172;-92
2023/11/13 07:58:17;;;;;;;9.50;4.33;;;;;;;;;;6187108;23;20155;-93
2023/11/13 08:01:24;;;;;;;9.33;4.90;;;;;;;;;;6187118;23;20200;-91
2023/11/13 08:04:29;;;;;;;9.23;4.40;;;;;;;;;;6187799;23;20167;-94
2023/11/13 08:07:37;;;;;;;11.87;4.10;;;;;;;;;;6186894;23;20163;-92
2023/11/13 08:10:46;;;;;;;11.60;5.17;;;;;;;;;;6204697;23;20195;-91
2023/11/13 08:13:53;;;;;;;16.83;6.30;;;;;;;;;;6187577;23;20163;-92
2023/11/13 08:16:58;;;;;;;20.87;7.97;;;;;;;;;;6187611;23;20168;-92
2023/11/13 08:20:04;;;;;;;15.53;7.63;;;;;;;;;;6186296;23;20211;-93
2023/11/13 08:23:15;;;;;;;7.10;4.03;;;;;;;;;;6187866;23;20175;-93
2023/11/13 08:26:37;;;;;;;8.53;4.10;;;;;;;;;;6189039;23;20168;-94
2023/11/13 08:29:46;;;;;;;7.23;3.60;;;;;;;;;;6205499;23;20168;-92
2023/11/13 08:36:15;;;;;;;9.30;4.93;;;;;;;;;;6188129;23;20176;-91
2023/11/13 08:39:28;;;;;;;7.03;3.93;;;;;;;;;;6205470;23;20223;-90
2023/11/13 08:42:34;;;;;;;11.60;4.53;;;;;;;;;;6185776;23;20188;-93
2023/11/13 08:45:42;;;;;;;8.50;3.93;;;;;;;;;;6186672;23;20191;-93
2023/11/13 08:48:52;;;;;;;5.50;3.27;;;;;;;;;;6187567;23;20172;-90
2023/11/13 08:51:58;;;;;;;7.37;3.63;;;;;;;;;;6186395;23;20172;-92
2023/11/13 08:55:04;;;;;;;12.50;3.53;;;;;;;;;;6186052;23;20170;-93
2023/11/13 08:58:11;;;;;;;4.90;2.80;;;;;;;;;;6186067;23;20180;-93
2023/11/13 09:01:25;;;;;;;6.83;2.90;;;;;;;;;;6188682;23;20223;-93
2023/11/13 09:04:39;;;;;;;10.47;5.23;;;;;;;;;;6187459;23;20172;-93
2023/11/13 09:07:45;;;;;;;5.10;2.70;;;;;;;;;;6188071;23;20176;-93
2023/11/13 09:10:51;;;;;;;5.97;3.37;;;;;;;;;;6185999;23;20163;-92
2023/11/13 09:13:57;;;;;;;7.07;3.47;;;;;;;;;;6186228;23;20183;-94
2023/11/13 09:17:11;;;;;;;7.47;3.77;;;;;;;;;;6185628;23;20183;-93
2023/11/13 09:20:19;;;;;;;5.23;3.20;;;;;;;;;;6185664;23;20187;-94
2023/11/13 09:23:24;;;;;;;10.50;3.73;;;;;;;;;;6187842;23;20348;-94
2023/11/13 09:26:31;;;;;;;7.30;3.40;;;;;;;;;;6185559;23;20167;-89
2023/11/13 09:29:40;;;;;;;6.23;3.13;;;;;;;;;;6190254;23;20217;-91
2023/11/13 09:32:56;;;;;;;4.83;2.83;;;;;;;;;;6192062;23;20232;-92
2023/11/13 09:36:05;;;;;;;4.67;2.60;;;;;;;;;;6190842;23;20240;-93
2023/11/13 09:42:33;;;;;;;4.93;2.73;;;;;;;;;;6191502;23;20224;-94
2023/11/13 09:45:50;;;;;;;11.20;4.88;;;;;;;;;;6188472;23;20221;-93
2023/11/13 09:49:02;;;;;;;8.23;4.70;;;;;;;;;;6189385;23;20181;-93
2023/11/13 09:52:08;;;;;;;7.05;3.45;;;;;;;;;;6185979;23;20243;-91
2023/11/13 09:55:18;;;;;;;7.07;3.40;;;;;;;;;;6204354;23;20148;-94
2023/11/13 09:58:24;;;;;;;4.67;2.93;;;;;;;;;;6187397;23;20164;-91
2023/11/13 10:01:30;;;;;;;7.18;3.30;;;;;;;;;;6186679;23;20671;-92
2023/11/13 10:04:42;;;;;;;5.33;3.23;;;;;;;;;;6188527;23;20163;-92
2023/11/13 10:07:52;;;;;;;11.67;4.97;;;;;;;;;;6186475;23;20171;-92
2023/11/13 10:11:08;;;;;;;6.60;2.90;;;;;;;;;;6185971;23;20172;-93
2023/11/13 10:14:17;;;;;;;5.67;3.13;;;;;;;;;;6185676;23;20180;-93
2023/11/13 10:17:50;;;;;;;6.73;3.50;;;;;;;;;;6184086;23;20172;-93
2023/11/13 11:31:51;;;;;;;7.38;3.90;;;;;;;;;;6189428;22;20208;-93
2023/11/13 11:35:02;;;;;;;9.48;4.20;;;;;;;;;;6218307;22;20182;-93
2023/11/13 11:38:21;;;;;;;8.52;3.97;;;;;;;;;;6221131;23;20215;-89
2023/11/13 11:41:42;;;;;;;10.60;4.43;;;;;;;;;;6219038;22;20371;-91
2023/11/13 11:45:07;;;;;;;8.95;4.63;;;;;;;;;;6220573;22;20148;-94
2023/11/13 11:48:20;;;;;;;6.60;4.00;;;;;;;;;;6220867;23;20217;-90
2023/11/13 11:51:26;;;;;;;7.45;4.50;;;;;;;;;;6219060;23;20268;-90
2023/11/13 11:54:38;;;;;;;14.25;5.78;;;;;;;;;;6218437;23;20171;-92
2023/11/13 11:57:46;;;;;;;9.80;4.85;;;;;;;;;;6216885;22;20218;-92
2023/11/13 12:00:52;;;;;;;10.60;5.05;;;;;;;;;;6216700;23;20203;-93
2023/11/13 12:04:11;;;;;;;9.93;5.25;;;;;;;;;;6216672;23;20167;-91
2023/11/13 12:07:17;;;;;;;10.30;4.55;;;;;;;;;;6218820;22;20167;-92
2023/11/13 12:10:23;;;;;;;12.55;4.90;;;;;;;;;;6217252;22;20155;-92
2023/11/13 12:13:28;;;;;;;8.80;4.65;;;;;;;;;;6217466;23;20167;-93
2023/11/13 12:16:34;;;;;;;11.27;5.20;;;;;;;;;;6214230;23;20241;-91
2023/11/13 12:19:43;;;;;;;8.40;5.18;;;;;;;;;;6217069;23;20666;-92
2023/11/13 12:22:48;;;;;;;8.38;5.05;;;;;;;;;;6217679;22;20318;-92
2023/11/13 12:25:54;;;;;;;8.40;4.85;;;;;;;;;;6217812;22;20187;-94
2023/11/13 12:28:59;;;;;;;11.55;6.13;;;;;;;;;;6218216;23;20167;-91
2023/11/13 12:32:05;;;;;;;9.07;5.38;;;;;;;;;;6233138;23;20195;-92
2023/11/13 12:38:40;;;;;;;9.45;5.85;;;;;;;;;;6215776;22;20167;-96
2023/11/13 12:41:46;;;;;;;12.15;5.95;;;;;;;;;;6215468;22;20198;-94
2023/11/13 12:44:54;;;;;;;13.98;8.50;;;;;;;;;;6216510;23;20191;-94
2023/11/13 12:48:06;;;;;;;40.75;14.52;;;;;;;;;;6199490;23;20210;-90
2023/11/13 12:51:13;;;;;;;17.17;7.93;;;;;;;;;;6215505;22;20160;-92
2023/11/13 12:54:18;;;;;;;11.25;5.80;;;;;;;;;;6217587;22;20178;-93
2023/11/13 12:57:25;;;;;;;14.38;6.40;;;;;;;;;;6214571;23;20266;-93
2023/11/13 13:00:33;;;;;;;12.88;6.43;;;;;;;;;;6215982;23;20220;-92
2023/11/13 13:03:40;;;;;;;17.95;7.13;;;;;;;;;;6215257;23;20175;-92
2023/11/13 13:06:49;;;;;;;16.52;7.30;;;;;;;;;;6218453;22;20179;-95
2023/11/13 13:09:55;;;;;;;13.52;6.93;;;;;;;;;;6216704;23;20195;-93
2023/11/13 13:13:04;;;;;;;9.70;5.80;;;;;;;;;;6216062;23;20175;-93
2023/11/13 13:16:13;;;;;;;9.63;5.85;;;;;;;;;;6221415;23;20211;-94
2023/11/13 13:19:20;;;;;;;10.02;6.50;;;;;;;;;;6219798;22;20155;-91
2023/11/13 13:22:33;;;;;;;11.80;6.53;;;;;;;;;;6219525;22;20198;-92
2023/11/13 13:25:39;;;;;;;10.48;6.35;;;;;;;;;;6218403;23;20171;-90
2023/11/13 13:28:46;;;;;;;9.40;5.43;;;;;;;;;;6220226;23;20170;-94
2023/11/13 13:31:53;;;;;;;14.35;6.40;;;;;;;;;;6219355;22;20269;-92
2023/11/13 13:35:03;;;;;;;12.95;6.45;;;;;;;;;;6218531;22;20167;-93
2023/11/13 13:38:14;;;;;;;9.77;5.38;;;;;;;;;;6220954;22;20234;-91
2023/11/13 13:44:40;;;;;;;13.77;5.10;;;;;;;;;;6217428;22;20163;-92
2023/11/13 13:47:46;;;;;;;10.98;5.82;;;;;;;;;;6218369;22;20215;-92
2023/11/13 13:50:52;;;;;;;5.07;3.42;;;;;;;;;;6218480;23;20182;-93
2023/11/13 13:57:32;;;;;;;13.02;6.28;;;;;;;;;;6219243;23;20231;-92
2023/11/13 14:03:57;;;;;;;8.00;4.85;;;;;;;;;;6217723;23;20163;-92
2023/11/13 14:10:25;;;;;;;11.00;6.63;;;;;;;;;;6214591;22;20191;-93
2023/11/13 14:13:34;;;;;;;10.27;6.00;;;;;;;;;;6217861;23;20194;-93
2023/11/13 14:52:00;;;;;;;18.40;8.90;;;;;;;;;;6189285;22;20200;-93
2023/11/13 14:55:07;;;;;;;11.88;6.80;;;;;;;;;;6216629;23;20188;-92
2023/11/13 14:58:12;;;;;;;17.52;7.80;;;;;;;;;;6216981;23;20223;-91
2023/11/13 15:01:21;;;;;;;13.25;6.90;;;;;;;;;;6234717;22;20174;-91
2023/11/13 15:04:26;;;;;;;13.50;6.75;;;;;;;;;;6217328;22;20179;-92
2023/11/13 15:07:36;;;;;;;12.88;6.97;;;;;;;;;;6219238;23;20178;-93
2023/11/13 15:10:42;;;;;;;18.80;7.65;;;;;;;;;;6218989;23;20204;-94
2023/11/13 15:13:47;;;;;;;12.70;6.38;;;;;;;;;;6216422;23;20171;-94
2023/11/13 15:16:53;;;;;;;10.95;4.75;;;;;;;;;;6216718;22;20194;-96
2023/11/13 15:46:25;;;;;;;11.93;6.82;;;;;;;;;;6196401;23;20212;-92
2023/11/13 15:49:32;;;;;;;12.10;6.07;;;;;;;;;;6216728;23;20187;-94
2023/11/13 15:52:41;;;;;;;13.20;7.20;;;;;;;;;;6216153;22;20156;-95
2023/11/13 15:55:46;;;;;;;18.38;7.90;;;;;;;;;;6219202;23;20179;-94
2023/11/13 15:58:53;;;;;;;14.73;7.45;;;;;;;;;;6217649;23;20163;-94
2023/11/13 16:05:20;;;;;;;13.88;7.30;;;;;;;;;;6219999;23;20235;-90
2023/11/13 16:11:54;;;;;;;15.75;6.85;;;;;;;;;;6219094;23;20211;-93
2023/11/13 16:14:59;;;;;;;13.00;7.05;;;;;;;;;;6215177;23;20167;-93
2023/11/13 16:21:44;;;;;;;13.45;6.60;;;;;;;;;;6216251;23;20272;-94
2023/11/13 16:24:54;;;;;;;13.70;6.95;;;;;;;;;;6218662;23;20219;-92
2023/11/13 16:27:59;;;;;;;21.90;8.35;;;;;;;;;;6215883;23;20206;-94
2023/11/13 16:31:05;;;;;;;21.02;11.23;;;;;;;;;;6214861;23;20240;-92
2023/11/13 16:37:34;;;;;;;14.45;7.85;;;;;;;;;;6217484;23;20298;-95
2023/11/13 16:40:40;;;;;;;16.58;8.10;;;;;;;;;;6215415;23;20219;-93
2023/11/13 16:43:45;;;;;;;17.35;8.52;;;;;;;;;;6214705;22;20244;-93
2023/11/13 16:46:51;;;;;;;11.70;6.78;;;;;;;;;;6214224;22;20187;-94
2023/11/13 16:49:59;;;;;;;17.85;8.82;;;;;;;;;;6215059;22;20179;-93
2023/11/13 16:53:09;;;;;;;17.38;8.77;;;;;;;;;;6216751;23;20171;-93
2023/11/13 16:56:14;;;;;;;16.73;8.85;;;;;;;;;;6196724;22;20228;-92
2023/11/13 16:59:20;;;;;;;15.50;8.02;;;;;;;;;;6215050;22;20214;-91
2023/11/13 17:02:26;;;;;;;20.75;9.20;;;;;;;;;;6216926;23;20199;-92
2023/11/13 17:05:50;;;;;;;21.42;9.35;;;;;;;;;;6217815;22;20579;-95
2023/11/13 17:08:58;;;;;;;20.52;9.70;;;;;;;;;;6215286;23;20167;-95
2023/11/13 17:12:03;;;;;;;18.73;10.00;;;;;;;;;;6215431;23;20174;-94
2023/11/13 17:15:11;;;;;;;23.55;11.48;;;;;;;;;;6215767;23;20231;-94
2023/11/13 17:18:22;;;;;;;24.50;11.63;;;;;;;;;;6215401;23;20167;-93
2023/11/13 17:24:49;;;;;;;20.52;10.30;;;;;;;;;;6217985;23;20215;-93
2023/11/13 17:27:55;;;;;;;20.70;10.35;;;;;;;;;;6217293;22;20168;-93
2023/11/13 17:31:02;;;;;;;24.30;11.88;;;;;;;;;;6216814;23;20175;-92
2023/11/13 17:34:09;;;;;;;23.70;13.20;;;;;;;;;;6219093;23;20175;-94
2023/11/13 17:37:29;;;;;;;26.95;12.70;;;;;;;;;;6223765;22;20179;-92
